Time;durP1;ratioP1;P1;durP2;ratioP2;P2;SDS_P1;SDS_P2;PMS_P1;PMS_P2;Temp;Humidity;BMP_temperature;BMP_pressure;BME280_temperature;BME280_humidity;BME280_pressure;Samples;Min_cycle;Max_cycle;Signal;HPM_P1;HPM_P2
2023/04/26 00:03:59;;;;;;;6.07;2.88;;;;;;;4.34;100.00;99915.59;12189151;19;20035;-78
2023/04/26 00:08:02;;;;;;;7.05;2.53;;;;;;;4.31;100.00;99915.13;12167602;19;20066;-78
2023/04/26 00:12:05;;;;;;;8.10;2.92;;;;;;;4.28;100.00;99915.53;12188938;19;20086;-79
2023/04/26 00:16:06;;;;;;;7.97;3.13;;;;;;;4.23;100.00;99918.06;12186718;19;20014;-78
2023/04/26 00:20:11;;;;;;;7.00;3.25;;;;;;;4.19;100.00;99919.50;12165527;19;20033;-81
2023/04/26 00:24:13;;;;;;;9.15;3.33;;;;;;;4.13;100.00;99923.91;12187643;19;20034;-79
2023/04/26 00:28:15;;;;;;;13.18;3.75;;;;;;;4.05;100.00;99916.75;12203525;19;20034;-81
2023/04/26 00:32:17;;;;;;;8.15;3.40;;;;;;;3.98;100.00;99920.50;12168552;19;21290;-78
2023/04/26 00:36:20;;;;;;;9.02;4.30;;;;;;;3.96;100.00;99920.72;12186167;19;20014;-80
2023/04/26 00:40:22;;;;;;;8.80;3.72;;;;;;;3.94;100.00;99924.69;12189318;19;20018;-80
2023/04/26 00:44:24;;;;;;;6.28;3.42;;;;;;;3.92;100.00;99926.75;12166339;19;20027;-79
2023/04/26 00:48:26;;;;;;;5.65;3.25;;;;;;;3.89;100.00;99928.84;12195639;19;20007;-81
2023/04/26 00:52:29;;;;;;;8.20;3.60;;;;;;;3.86;100.00;99923.81;12195748;19;20014;-79
2023/04/26 00:56:32;;;;;;;9.55;3.55;;;;;;;3.83;100.00;99923.38;12168492;19;20034;-80
2023/04/26 01:00:33;;;;;;;8.25;3.53;;;;;;;3.82;100.00;99929.88;12196118;19;20035;-80
2023/04/26 01:04:36;;;;;;;8.20;3.90;;;;;;;3.79;100.00;99933.00;12208536;19;20034;-81
2023/04/26 01:08:38;;;;;;;9.68;3.33;;;;;;;3.77;100.00;99941.38;12186820;19;20031;-80
2023/04/26 01:12:40;;;;;;;11.20;3.42;;;;;;;3.73;100.00;99937.38;12209470;19;20042;-81
2023/04/26 01:16:46;;;;;;;7.30;3.47;;;;;;;3.72;100.00;99929.41;12208626;19;20479;-81
2023/04/26 01:20:48;;;;;;;6.45;3.42;;;;;;;3.69;100.00;99933.41;12183595;19;20034;-81
2023/04/26 01:24:53;;;;;;;6.63;3.10;;;;;;;3.64;100.00;99931.25;12207629;19;20078;-80
2023/04/26 01:28:55;;;;;;;7.22;3.15;;;;;;;3.61;100.00;99926.22;12200673;19;20576;-78
2023/04/26 01:32:57;;;;;;;6.97;3.50;;;;;;;3.60;100.00;99916.38;12207424;19;20006;-82
2023/04/26 01:37:00;;;;;;;8.38;3.08;;;;;;;3.60;100.00;99920.97;12205868;19;20011;-80
2023/04/26 01:41:02;;;;;;;;;;;;;;;3.58;100.00;99918.44;12184562;19;20015;-80
2023/04/26 01:45:06;;;;;;;8.35;3.08;;;;;;;3.56;100.00;99920.53;12207499;19;19910;-80
2023/04/26 01:49:31;;;;;;;8.02;3.17;;;;;;;3.51;100.00;99920.31;12197707;19;20035;-80
2023/04/26 01:53:33;;;;;;;7.75;3.42;;;;;;;3.51;100.00;99916.72;12183644;19;20518;-79
2023/04/26 01:57:35;;;;;;;7.07;3.40;;;;;;;3.48;100.00;99923.44;12205227;19;20010;-79
2023/04/26 02:01:36;;;;;;;7.60;3.08;;;;;;;3.43;100.00;99917.75;12203567;19;20043;-79
2023/04/26 02:05:38;;;;;;;5.85;2.70;;;;;;;3.42;100.00;99918.75;12183502;19;20080;-80
2023/04/26 02:09:40;;;;;;;9.45;3.55;;;;;;;3.40;100.00;99924.44;12203302;19;20043;-81
2023/04/26 02:13:42;;;;;;;7.00;3.47;;;;;;;3.37;100.00;99924.81;12201209;19;20014;-80
2023/04/26 02:17:44;;;;;;;10.00;3.47;;;;;;;3.35;100.00;99920.63;12183191;19;20015;-80
2023/04/26 02:21:55;;;;;;;7.95;3.63;;;;;;;3.32;100.00;99934.63;12203772;19;20031;-80
2023/04/26 02:25:56;;;;;;;6.70;3.40;;;;;;;3.30;100.00;99931.25;12189746;19;20373;-79
2023/04/26 02:29:58;;;;;;;5.70;3.15;;;;;;;3.26;100.00;99930.00;12208928;19;20023;-81
2023/04/26 02:34:01;;;;;;;6.77;3.23;;;;;;;3.25;100.00;99936.50;12211419;19;20011;-81
2023/04/26 02:38:03;;;;;;;7.97;3.60;;;;;;;3.23;100.00;99933.09;12185536;19;20078;-79
2023/04/26 02:42:11;;;;;;;9.40;3.63;;;;;;;3.21;100.00;99933.28;12203551;19;20011;-81
2023/04/26 02:46:13;;;;;;;7.43;3.42;;;;;;;3.19;100.00;99928.06;12200891;19;20450;-79
2023/04/26 02:50:17;;;;;;;9.68;3.80;;;;;;;3.18;100.00;99922.81;12178462;19;20046;-79
2023/04/26 02:54:19;;;;;;;6.67;3.80;;;;;;;3.16;100.00;99923.00;12185975;19;20007;-78
2023/04/26 02:58:21;;;;;;;7.80;3.38;;;;;;;3.15;100.00;99923.19;12209192;19;20082;-79
2023/04/26 03:02:23;;;;;;;11.80;3.92;;;;;;;3.12;100.00;99919.03;12203756;19;20085;-79
2023/04/26 03:06:26;;;;;;;7.40;3.85;;;;;;;3.11;100.00;99922.75;12213634;19;20011;-80
2023/04/26 03:10:29;;;;;;;8.13;4.20;;;;;;;3.09;100.00;99926.72;12204827;19;20016;-81
2023/04/26 03:14:30;;;;;;;8.82;3.55;;;;;;;3.05;100.00;99923.56;12182776;19;20006;-79
2023/04/26 03:18:32;;;;;;;9.40;3.88;;;;;;;3.04;100.00;99919.16;12202215;19;20074;-78
2023/04/26 03:22:34;;;;;;;8.67;3.87;;;;;;;3.00;100.00;99915.13;12204078;19;20082;-80
2023/04/26 03:26:37;;;;;;;10.55;5.10;;;;;;;2.99;100.00;99920.78;12178160;19;20621;-79
2023/04/26 03:30:39;;;;;;;11.07;4.40;;;;;;;2.95;100.00;99917.63;12200574;19;20006;-80
2023/04/26 03:34:40;;;;;;;11.00;4.55;;;;;;;2.92;100.00;99918.03;12196592;19;20011;-80
2023/04/26 03:38:42;;;;;;;10.70;4.35;;;;;;;2.88;100.00;99919.44;12177563;19;20085;-81
2023/04/26 03:42:45;;;;;;;;;;;;;;;2.85;100.00;99923.41;12195876;19;20011;-79
2023/04/26 03:46:49;;;;;;;9.05;4.00;;;;;;;2.80;100.00;99917.72;12201713;19;19911;-80
2023/04/26 03:50:52;;;;;;;11.63;5.03;;;;;;;2.78;100.00;99922.50;12177058;19;20459;-81
2023/04/26 03:54:53;;;;;;;10.80;4.78;;;;;;;2.75;100.00;99917.47;12196897;19;19998;-81
2023/04/26 03:58:55;;;;;;;11.17;4.77;;;;;;;2.74;100.00;99923.94;12190245;19;20094;-81
2023/04/26 04:02:58;;;;;;;10.23;4.97;;;;;;;2.74;100.00;99915.78;12202609;19;20633;-79
2023/04/26 04:07:00;;;;;;;9.63;4.85;;;;;;;2.71;100.00;99911.56;12201712;19;20026;-79
2023/04/26 04:11:02;;;;;;;8.73;4.72;;;;;;;2.72;100.00;99918.69;12177983;19;20074;-80
2023/04/26 04:15:07;;;;;;;11.98;5.10;;;;;;;2.72;100.00;99910.53;12204824;19;20018;-82
2023/04/26 04:19:12;;;;;;;12.35;5.35;;;;;;;2.73;100.00;99919.53;12195330;19;20618;-81
2023/04/26 04:23:14;;;;;;;9.40;5.30;;;;;;;2.71;100.00;99925.19;12189508;19;20066;-80
2023/04/26 04:27:16;;;;;;;12.75;5.47;;;;;;;2.70;100.00;99930.81;12210057;19;20007;-81
2023/04/26 04:31:18;;;;;;;11.17;4.90;;;;;;;2.69;100.00;99921.81;12194649;19;20017;-80
2023/04/26 04:35:28;;;;;;;9.18;4.60;;;;;;;2.68;100.00;99925.56;12173808;19;20322;-80
2023/04/26 04:39:30;;;;;;;9.10;3.72;;;;;;;2.71;100.00;99929.78;12206065;19;20010;-81
2023/04/26 04:43:33;;;;;;;8.77;4.35;;;;;;;2.77;100.00;99933.56;12202293;19;20006;-81
2023/04/26 04:47:38;;;;;;;7.43;3.30;;;;;;;2.80;100.00;99939.50;12185712;19;20081;-80
2023/04/26 04:51:42;;;;;;;6.35;3.35;;;;;;;2.86;100.00;99943.31;12198066;19;20494;-81
2023/04/26 04:55:46;;;;;;;7.13;3.83;;;;;;;2.90;100.00;99950.88;12196618;19;20086;-80
2023/04/26 04:59:50;;;;;;;8.13;4.05;;;;;;;2.95;100.00;99945.69;12178561;19;20061;-79
2023/04/26 05:03:52;;;;;;;11.40;4.67;;;;;;;2.99;100.00;99948.84;12201662;19;20007;-80
2023/04/26 05:07:54;;;;;;;10.05;3.35;;;;;;;3.05;100.00;99948.06;12203027;19;20461;-80
2023/04/26 05:11:56;;;;;;;7.90;3.30;;;;;;;3.11;100.00;99958.16;12177648;19;20010;-78
2023/04/26 05:15:58;;;;;;;9.38;4.55;;;;;;;3.17;100.00;99960.09;12202629;19;20006;-80
2023/04/26 05:20:06;;;;;;;7.53;3.70;;;;;;;3.24;100.00;99965.56;12177640;19;20014;-82
2023/04/26 05:24:08;;;;;;;10.40;3.65;;;;;;;3.28;100.00;99971.50;12200734;19;20006;-80
2023/04/26 05:28:12;;;;;;;7.82;3.55;;;;;;;3.33;100.00;99972.59;12190540;19;20007;-79
2023/04/26 05:32:49;;;;;;;8.02;3.15;;;;;;;3.45;100.00;99972.88;12162020;19;20013;-81
2023/04/26 05:37:09;;;;;;;5.65;3.22;;;;;;;3.49;100.00;99982.31;12197809;19;21230;-81
2023/04/26 05:41:11;;;;;;;12.20;3.88;;;;;;;3.52;100.00;99978.34;12179470;19;20006;-79
2023/04/26 05:45:14;;;;;;;8.50;3.75;;;;;;;3.56;100.00;99979.63;12193249;19;20054;-80
2023/04/26 05:49:16;;;;;;;10.30;3.63;;;;;;;3.63;100.00;99986.81;12174466;19;20377;-81
2023/04/26 05:53:19;;;;;;;6.78;2.97;;;;;;;3.74;100.00;99979.94;12177379;19;20018;-81
2023/04/26 05:57:27;;;;;;;5.70;3.78;;;;;;;3.88;100.00;99989.88;12203716;19;20002;-81
2023/04/26 06:01:29;;;;;;;8.25;4.47;;;;;;;3.99;100.00;99993.94;12201741;19;20006;-81
2023/04/26 06:05:31;;;;;;;10.25;4.20;;;;;;;4.15;100.00;100006.38;12178713;19;20024;-80
2023/04/26 06:09:34;;;;;;;6.85;3.60;;;;;;;4.28;100.00;100002.84;12202930;19;20027;-78
2023/04/26 06:13:36;;;;;;;9.18;4.80;;;;;;;4.43;100.00;100005.41;12205436;19;21135;-81
2023/04/26 06:17:40;;;;;;;10.55;5.07;;;;;;;4.61;100.00;100007.56;12188258;19;20014;-80
2023/04/26 06:21:47;;;;;;;8.52;4.85;;;;;;;4.77;100.00;100013.47;12238024;19;20002;-78
2023/04/26 06:25:50;;;;;;;11.85;5.10;;;;;;;4.98;100.00;100019.81;12240218;19;20018;-78
2023/04/26 06:29:54;;;;;;;10.38;4.07;;;;;;;5.16;100.00;100013.75;12192786;19;20081;-81
2023/04/26 06:33:59;;;;;;;9.13;4.43;;;;;;;5.32;100.00;100021.50;12210809;19;20038;-81
2023/04/26 06:38:02;;;;;;;9.02;4.35;;;;;;;5.49;100.00;100024.66;12188224;19;20006;-81
2023/04/26 06:42:05;;;;;;;11.43;4.85;;;;;;;5.62;100.00;100029.25;12205571;19;20054;-81
2023/04/26 06:46:34;;;;;;;13.93;6.63;;;;;;;5.81;100.00;100028.41;12204777;19;20464;-81
2023/04/26 06:50:38;;;;;;;10.20;5.78;;;;;;;5.96;100.00;100027.34;12185821;19;20082;-80
2023/04/26 06:54:43;;;;;;;10.93;5.05;;;;;;;6.21;100.00;100022.84;12210804;19;20013;-80
2023/04/26 06:59:01;;;;;;;10.50;5.20;;;;;;;6.49;100.00;100013.47;12183232;19;21460;-81
2023/04/26 07:03:04;;;;;;;15.13;5.20;;;;;;;6.87;100.00;100013.47;12211384;19;20010;-80
2023/04/26 07:07:08;;;;;;;10.02;4.82;;;;;;;7.16;100.00;100011.16;12207578;19;20024;-81
2023/04/26 07:11:13;;;;;;;10.52;5.40;;;;;;;7.43;98.85;100020.81;12187829;19;20425;-81
2023/04/26 07:15:18;;;;;;;12.45;5.35;;;;;;;7.84;95.99;100010.31;12207691;19;20014;-80
2023/04/26 07:19:20;;;;;;;13.13;5.50;;;;;;;8.00;93.77;100012.44;12206602;19;20563;-78
2023/04/26 07:23:22;;;;;;;11.50;5.35;;;;;;;8.02;91.43;100013.06;12187285;19;20488;-80
2023/04/26 07:27:26;;;;;;;12.25;5.00;;;;;;;8.25;90.22;100008.81;12209357;19;20014;-80
2023/04/26 07:31:29;;;;;;;11.15;6.05;;;;;;;8.39;86.28;100013.94;12205550;19;20027;-80
2023/04/26 07:35:30;;;;;;;10.73;5.80;;;;;;;8.35;84.83;100011.84;12187305;19;20014;-80
2023/04/26 07:39:35;;;;;;;12.90;5.10;;;;;;;8.60;77.99;100007.13;12209375;19;20015;-79
2023/04/26 07:43:39;;;;;;;17.08;5.32;;;;;;;8.77;82.27;100003.69;12208885;19;20558;-79
2023/04/26 07:47:44;;;;;;;9.02;5.05;;;;;;;9.10;81.65;100006.81;12177180;19;20010;-81
2023/04/26 07:51:49;;;;;;;9.23;4.30;;;;;;;9.35;78.19;100006.59;12202050;19;20354;-78
2023/04/26 07:55:53;;;;;;;8.88;4.38;;;;;;;9.24;78.04;100009.34;12205174;19;20104;-79
2023/04/26 07:59:57;;;;;;;8.35;3.63;;;;;;;9.43;75.32;100013.69;12180339;19;20016;-79
2023/04/26 08:04:07;;;;;;;9.75;4.07;;;;;;;9.60;71.52;100019.28;12203641;19;20372;-79
2023/04/26 08:08:12;;;;;;;9.50;4.35;;;;;;;10.01;72.63;100012.81;12182611;19;20025;-80
2023/04/26 08:12:15;;;;;;;11.60;4.45;;;;;;;10.29;70.04;100019.50;12202574;19;20018;-78
2023/04/26 08:16:20;;;;;;;9.52;4.35;;;;;;;10.50;69.10;100012.53;12204878;19;20014;-80
2023/04/26 08:20:25;;;;;;;10.30;4.78;;;;;;;10.46;70.59;100020.44;12180816;19;20010;-80
2023/04/26 08:24:28;;;;;;;8.15;4.03;;;;;;;10.40;67.53;100018.66;12201608;19;20030;-78
2023/04/26 08:28:30;;;;;;;10.32;3.63;;;;;;;10.25;64.73;100026.56;12203048;19;20002;-78
2023/04/26 08:32:34;;;;;;;8.52;3.83;;;;;;;10.03;65.89;100018.94;12181069;19;20022;-79
2023/04/26 08:36:37;;;;;;;13.73;4.10;;;;;;;9.78;64.78;100023.84;12201007;19;20070;-79
2023/04/26 08:40:41;;;;;;;15.00;4.05;;;;;;;9.50;65.61;100019.06;12203456;19;20448;-80
2023/04/26 08:44:47;;;;;;;8.85;3.55;;;;;;;9.84;63.55;100017.38;12182912;19;20014;-79
2023/04/26 08:49:03;;;;;;;13.00;3.35;;;;;;;10.43;61.98;100017.34;12195529;19;20043;-78
2023/04/26 08:53:09;;;;;;;10.40;3.35;;;;;;;11.12;60.23;100009.00;12185880;19;20471;-79
2023/04/26 08:57:12;;;;;;;7.55;3.63;;;;;;;11.47;55.65;100000.50;12207847;19;20462;-79
2023/04/26 09:01:18;;;;;;;9.27;4.25;;;;;;;11.77;55.44;99999.31;12203041;19;20018;-79
2023/04/26 09:05:25;;;;;;;7.60;2.95;;;;;;;11.91;51.77;99994.31;12181474;19;20010;-79
2023/04/26 09:09:38;;;;;;;7.78;3.40;;;;;;;12.01;53.44;99997.19;12200792;19;20091;-79
2023/04/26 09:13:42;;;;;;;7.60;2.80;;;;;;;12.29;53.63;99994.28;12196725;19;20007;-77
2023/04/26 09:17:44;;;;;;;6.60;3.45;;;;;;;12.44;51.98;99987.28;12173040;19;20034;-78
2023/04/26 09:21:48;;;;;;;7.03;3.13;;;;;;;12.42;51.09;99986.69;12195739;19;20471;-78
2023/04/26 09:25:50;;;;;;;8.10;3.35;;;;;;;12.15;51.46;99997.66;12209882;19;20003;-79
2023/04/26 09:29:58;;;;;;;7.72;3.38;;;;;;;11.92;50.59;99998.72;12183327;19;20034;-79
2023/04/26 09:34:01;;;;;;;7.57;3.50;;;;;;;12.11;51.44;99993.75;12207642;19;20014;-79
2023/04/26 09:38:17;;;;;;;9.32;3.15;;;;;;;12.19;49.45;99987.78;12186887;19;20010;-79
2023/04/26 09:42:20;;;;;;;11.63;3.20;;;;;;;12.37;49.68;99986.63;12211126;19;20030;-79
2023/04/26 09:46:25;;;;;;;5.83;2.63;;;;;;;12.16;49.88;99983.59;12205352;19;20010;-79
2023/04/26 09:50:30;;;;;;;11.35;2.85;;;;;;;12.49;49.34;99985.41;12181934;19;20888;-78
2023/04/26 09:54:44;;;;;;;7.15;2.22;;;;;;;13.09;44.82;99975.25;12215748;19;20011;-77
2023/04/26 09:59:00;;;;;;;5.38;2.10;;;;;;;13.53;42.91;99980.63;12207888;19;20034;-77
2023/04/26 10:03:04;;;;;;;5.55;2.15;;;;;;;13.68;42.70;99983.53;12187026;19;20003;-77
2023/04/26 10:07:08;;;;;;;6.38;2.78;;;;;;;13.57;42.21;99980.94;12207755;19;20031;-78
2023/04/26 10:11:11;;;;;;;11.35;3.20;;;;;;;13.87;40.49;99974.78;12187301;19;20377;-78
2023/04/26 10:15:14;;;;;;;5.97;2.53;;;;;;;13.97;42.66;99974.81;12204210;19;20006;-77
2023/04/26 10:19:20;;;;;;;7.25;2.38;;;;;;;13.86;38.75;99973.09;12204175;19;20028;-77
2023/04/26 10:23:26;;;;;;;6.13;1.95;;;;;;;13.64;40.57;99979.59;12184953;19;20007;-77
2023/04/26 10:27:42;;;;;;;8.15;2.22;;;;;;;13.64;39.39;99976.81;12206975;19;20066;-77
2023/04/26 10:32:05;;;;;;;4.43;1.83;;;;;;;13.59;39.29;99965.75;12205318;19;20030;-77
2023/04/26 10:36:13;;;;;;;6.30;2.00;;;;;;;13.57;38.79;99979.00;12180029;19;20046;-77
2023/04/26 10:40:38;;;;;;;6.80;2.20;;;;;;;13.70;38.79;99963.03;12208053;19;20011;-77
2023/04/26 10:44:44;;;;;;;3.90;1.88;;;;;;;13.80;37.52;99963.06;12181814;19;20388;-76
2023/04/26 10:48:48;;;;;;;5.75;1.65;;;;;;;14.02;38.09;99961.00;12194658;19;20445;-77
2023/04/26 10:52:59;;;;;;;7.10;2.10;;;;;;;14.18;38.86;99958.31;12204557;19;20011;-76
2023/04/26 10:57:08;;;;;;;4.47;2.42;;;;;;;14.11;37.58;99947.47;12181214;19;20010;-77
2023/04/26 11:01:17;;;;;;;5.57;2.37;;;;;;;14.16;37.77;99953.03;12201584;19;20055;-77
2023/04/26 11:05:34;;;;;;;6.38;2.83;;;;;;;14.05;37.78;99945.78;12177471;19;20212;-76
2023/04/26 11:09:39;;;;;;;7.25;2.33;;;;;;;13.88;38.02;99935.72;12204541;19;20026;-76
2023/04/26 11:13:43;;;;;;;6.85;1.90;;;;;;;14.09;36.88;99938.59;11992135;19;20002;-77
2023/04/26 11:17:46;;;;;;;8.20;2.53;;;;;;;14.21;38.20;99930.03;12177400;19;20799;-76
2023/04/26 11:21:52;;;;;;;9.68;3.08;;;;;;;14.71;37.83;99925.78;12199820;19;20027;-78
2023/04/26 11:26:04;;;;;;;4.75;2.08;;;;;;;15.10;37.98;99915.00;12180716;19;20781;-76
2023/04/26 11:30:07;;;;;;;7.00;2.10;;;;;;;14.70;38.21;99922.19;11975930;19;21204;-77
2023/04/26 11:34:10;;;;;;;7.18;2.70;;;;;;;14.48;37.37;99916.00;12202649;19;20014;-77
2023/04/26 11:38:13;;;;;;;5.25;2.00;;;;;;;13.98;38.03;99907.25;12177181;19;20376;-78
2023/04/26 11:42:14;;;;;;;4.72;1.90;;;;;;;14.33;38.95;99914.00;12203476;19;20031;-74
2023/04/26 11:46:20;;;;;;;8.63;2.33;;;;;;;14.84;36.79;99910.56;12199386;19;20020;-76
2023/04/26 11:50:25;;;;;;;6.47;2.67;;;;;;;15.26;35.56;99894.47;12172478;19;20010;-76
2023/04/26 11:54:34;;;;;;;9.38;2.65;;;;;;;15.49;35.02;99895.00;12201550;19;20368;-76
2023/04/26 11:58:36;;;;;;;4.70;2.30;;;;;;;15.42;33.64;99895.28;12197723;19;20738;-76
2023/04/26 12:02:38;;;;;;;4.68;1.98;;;;;;;15.49;35.28;99893.03;12177568;19;20077;-79
2023/04/26 12:06:45;;;;;;;6.15;2.35;;;;;;;16.46;35.25;99891.91;12194024;19;20402;-76
2023/04/26 12:10:49;;;;;;;5.35;2.20;;;;;;;16.90;32.86;99888.31;12197642;19;20021;-76
2023/04/26 12:14:52;;;;;;;6.10;2.72;;;;;;;17.11;33.44;99890.94;12177735;19;20024;-77
2023/04/26 12:18:55;;;;;;;5.18;2.10;;;;;;;17.03;33.20;99887.63;12194619;19;20042;-76
2023/04/26 12:22:58;;;;;;;7.15;2.20;;;;;;;17.04;31.83;99886.53;12171804;19;20066;-77
2023/04/26 12:27:03;;;;;;;5.18;2.20;;;;;;;17.92;31.35;99884.53;12195488;19;20081;-77
2023/04/26 12:31:07;;;;;;;6.47;2.65;;;;;;;18.67;29.90;99875.44;12194303;19;20006;-78
2023/04/26 12:35:09;;;;;;;5.70;2.22;;;;;;;19.45;29.71;99880.63;12175220;19;20021;-77
2023/04/26 12:39:14;;;;;;;5.40;2.15;;;;;;;19.16;28.37;99878.91;12190503;19;20003;-76
2023/04/26 12:43:16;;;;;;;6.43;2.13;;;;;;;18.43;29.78;99871.91;12197590;19;21291;-76
2023/04/26 12:47:19;;;;;;;5.38;2.30;;;;;;;18.94;28.45;99876.72;12171366;19;20011;-76
2023/04/26 12:51:23;;;;;;;6.15;2.00;;;;;;;19.40;28.20;99878.75;12187858;19;20019;-77
2023/04/26 12:55:28;;;;;;;6.28;3.65;;;;;;;19.84;28.01;99876.56;12192432;19;20014;-76
2023/04/26 12:59:33;;;;;;;6.20;2.60;;;;;;;20.97;26.43;99866.53;12179226;19;20065;-77
2023/04/26 13:03:35;;;;;;;5.30;2.00;;;;;;;21.76;26.33;99871.50;12203996;19;20022;-76
2023/04/26 13:07:41;;;;;;;5.03;2.28;;;;;;;21.96;26.23;99875.72;12201801;19;20161;-76
2023/04/26 13:11:49;;;;;;;6.70;2.85;;;;;;;22.88;24.53;99875.75;12178040;19;20018;-77
2023/04/26 13:15:51;;;;;;;5.97;2.53;;;;;;;23.07;24.56;99867.00;12204793;19;20007;-78
2023/04/26 13:19:55;;;;;;;8.00;2.40;;;;;;;23.91;23.93;99862.66;12200921;19;20276;-77
2023/04/26 13:23:58;;;;;;;6.40;2.13;;;;;;;23.54;23.95;99870.72;12187387;19;20019;-77
2023/04/26 13:28:00;;;;;;;5.50;2.10;;;;;;;22.60;24.82;99864.81;12204130;19;20007;-76
2023/04/26 13:32:02;;;;;;;6.78;2.28;;;;;;;23.04;24.18;99879.72;12186303;19;20011;-76
2023/04/26 13:36:04;;;;;;;6.05;2.30;;;;;;;23.40;23.66;99867.28;12202925;19;20058;-76
2023/04/26 13:40:10;;;;;;;4.60;2.13;;;;;;;24.57;22.60;99864.97;12203101;19;20042;-77
2023/04/26 13:44:13;;;;;;;7.60;2.40;;;;;;;24.96;22.33;99851.56;12189802;19;20499;-77
2023/04/26 13:48:15;;;;;;;4.30;2.55;;;;;;;25.71;21.60;99862.75;12208419;19;20375;-76
2023/04/26 13:52:17;;;;;;;8.63;2.47;;;;;;;25.68;21.34;99861.44;12201223;19;20034;-77
2023/04/26 13:56:19;;;;;;;3.80;2.53;;;;;;;25.39;21.34;99848.31;12183536;19;20010;-77
2023/04/26 14:00:21;;;;;;;8.25;2.30;;;;;;;25.14;21.47;99863.53;12206016;19;20031;-78
2023/04/26 14:04:23;;;;;;;4.28;2.05;;;;;;;24.68;21.14;99849.28;12207119;19;20002;-78
2023/04/26 14:08:28;;;;;;;3.05;1.73;;;;;;;23.72;22.06;99849.00;12183101;19;20014;-77
2023/04/26 14:12:32;;;;;;;6.78;2.13;;;;;;;22.19;23.23;99860.47;12207337;19;20003;-76
2023/04/26 14:16:35;;;;;;;4.97;2.30;;;;;;;20.49;24.44;99851.09;12213257;19;20724;-78
2023/04/26 14:20:37;;;;;;;3.90;1.70;;;;;;;19.31;26.52;99858.25;12184220;19;20050;-77
2023/04/26 14:24:39;;;;;;;5.20;1.87;;;;;;;18.70;26.62;99848.06;12225534;19;20041;-78
2023/04/26 14:28:41;;;;;;;6.32;2.45;;;;;;;18.36;26.27;99854.72;12207401;19;20667;-76
2023/04/26 14:32:44;;;;;;;3.90;1.85;;;;;;;18.11;27.04;99847.50;12188622;19;20167;-76
2023/04/26 14:36:46;;;;;;;4.70;2.17;;;;;;;17.93;27.96;99851.91;12199882;19;20018;-76
2023/04/26 14:40:48;;;;;;;6.30;2.23;;;;;;;17.82;27.97;99845.66;12188233;19;20006;-76
2023/04/26 14:44:50;;;;;;;4.47;2.10;;;;;;;17.48;28.05;99846.53;12173070;19;20011;-77
2023/04/26 14:48:54;;;;;;;5.82;2.80;;;;;;;16.94;29.47;99847.63;12194762;19;20019;-76
2023/04/26 14:52:56;;;;;;;4.38;2.10;;;;;;;16.58;29.59;99844.25;12184450;19;20384;-77
2023/04/26 14:56:59;;;;;;;7.10;1.92;;;;;;;15.92;31.22;99832.41;12193164;19;20021;-78
2023/04/26 15:01:01;;;;;;;4.07;1.90;;;;;;;15.64;31.01;99824.69;12200234;19;20018;-79
2023/04/26 15:05:05;;;;;;;16.05;2.40;;;;;;;15.36;31.61;99826.16;12178266;19;20014;-80
2023/04/26 15:09:11;;;;;;;4.35;2.25;;;;;;;15.56;31.69;99815.00;12198261;19;20079;-79
2023/04/26 15:13:13;;;;;;;6.90;2.20;;;;;;;15.55;32.17;99820.84;12200813;19;22107;-80
2023/04/26 15:17:16;;;;;;;9.15;2.50;;;;;;;15.66;31.30;99800.25;12180437;19;20024;-80
2023/04/26 15:21:18;;;;;;;8.10;2.30;;;;;;;15.42;31.67;99812.00;12203623;19;20368;-79
2023/04/26 15:25:20;;;;;;;4.05;2.50;;;;;;;15.23;32.23;99805.38;12199393;19;20026;-79
2023/04/26 15:29:22;;;;;;;5.00;1.83;;;;;;;15.40;31.75;99808.66;12175906;19;20025;-77
2023/04/26 15:33:24;;;;;;;4.67;2.03;;;;;;;15.12;32.40;99796.25;12198664;19;20097;-77
2023/04/26 15:37:29;;;;;;;6.90;1.95;;;;;;;15.12;32.98;99792.63;12193945;19;21191;-78
2023/04/26 15:41:31;;;;;;;7.07;1.58;;;;;;;15.01;32.64;99792.63;12172746;19;20074;-80
2023/04/26 15:45:34;;;;;;;6.68;2.05;;;;;;;14.89;33.09;99792.09;12198048;19;20006;-79
2023/04/26 15:49:37;;;;;;;3.50;1.83;;;;;;;15.13;32.56;99786.78;12195724;19;20046;-81
2023/04/26 15:53:40;;;;;;;2.72;1.38;;;;;;;15.07;32.84;99799.00;12172420;19;20014;-80
2023/04/26 15:57:45;;;;;;;5.53;2.00;;;;;;;15.14;32.11;99788.47;12196102;19;20006;-81
2023/04/26 16:01:47;;;;;;;8.90;2.10;;;;;;;15.09;31.61;99791.25;12198701;19;20010;-81
2023/04/26 16:05:49;;;;;;;6.45;1.42;;;;;;;14.95;31.86;99787.38;12174295;19;20324;-80
2023/04/26 16:09:51;;;;;;;4.60;1.83;;;;;;;15.31;30.28;99804.78;12197287;19;20011;-79
2023/04/26 16:13:53;;;;;;;2.78;1.35;;;;;;;15.16;31.54;99789.00;12197455;19;20117;-80
2023/04/26 16:17:58;;;;;;;5.53;2.03;;;;;;;15.19;31.48;99785.66;12178980;19;20365;-80
2023/04/26 16:22:01;;;;;;;3.45;1.15;;;;;;;15.13;31.80;99780.41;12192912;19;20002;-80
2023/04/26 16:26:04;;;;;;;;;;;;;;;14.98;31.30;99782.09;12174348;19;20019;-80
2023/04/26 16:30:08;;;;;;;5.47;1.65;;;;;;;14.67;31.53;99783.25;12193187;19;19915;-79
2023/04/26 16:34:10;;;;;;;;;;;;;;;14.30;33.19;99787.88;12216632;19;20390;-79
2023/04/26 16:38:12;;;;;;;7.75;1.30;;;;;;;14.39;32.54;99784.56;12195282;19;19911;-80
2023/04/26 16:42:15;;;;;;;5.32;1.58;;;;;;;14.23;33.63;99778.19;12224821;19;20023;-80
2023/04/26 16:46:17;;;;;;;5.10;1.77;;;;;;;14.27;33.10;99785.66;12217640;19;20031;-79
2023/04/26 16:50:20;;;;;;;4.10;1.60;;;;;;;13.97;33.24;99780.91;12196423;19;20097;-79
2023/04/26 16:54:24;;;;;;;3.27;1.93;;;;;;;13.72;33.10;99772.53;12216813;19;20499;-79
2023/04/26 16:58:26;;;;;;;5.07;1.52;;;;;;;13.56;33.35;99779.91;12216762;19;20337;-79
2023/04/26 17:02:29;;;;;;;6.30;2.08;;;;;;;13.30;33.89;99781.75;12199728;19;20038;-80
2023/04/26 17:06:31;;;;;;;5.10;1.73;;;;;;;13.17;34.32;99780.25;12218254;19;20007;-80
2023/04/26 17:10:35;;;;;;;3.53;1.27;;;;;;;12.98;34.94;99782.63;12214805;19;20011;-80
2023/04/26 17:14:37;;;;;;;7.22;1.80;;;;;;;12.91;35.02;99782.00;12195983;19;20263;-79
2023/04/26 17:18:40;;;;;;;5.53;1.67;;;;;;;12.82;35.53;99786.38;12205189;19;20023;-80
2023/04/26 17:22:42;;;;;;;4.80;1.35;;;;;;;12.85;35.73;99792.22;12215314;19;20035;-78
2023/04/26 17:26:46;;;;;;;2.38;1.20;;;;;;;13.28;35.84;99795.00;12206825;19;20013;-82
2023/04/26 17:30:48;;;;;;;4.80;1.50;;;;;;;13.50;35.23;99792.91;12224485;19;20030;-80
2023/04/26 17:34:50;;;;;;;3.92;1.50;;;;;;;13.77;35.36;99798.31;12226395;19;20117;-79
2023/04/26 17:38:52;;;;;;;6.32;1.85;;;;;;;13.99;35.23;99794.50;12196738;19;20019;-79
2023/04/26 17:42:55;;;;;;;3.65;1.50;;;;;;;14.28;35.06;99794.84;12218845;19;20010;-80
2023/04/26 17:46:58;;;;;;;5.50;1.23;;;;;;;14.53;35.88;99794.88;12185075;19;20003;-79
2023/04/26 17:51:00;;;;;;;6.93;1.80;;;;;;;14.43;36.03;99803.16;12206247;19;20073;-80
2023/04/26 17:55:05;;;;;;;8.63;1.83;;;;;;;14.18;36.36;99803.13;12201317;19;20042;-79
2023/04/26 17:59:08;;;;;;;4.05;1.60;;;;;;;13.85;36.14;99817.16;12179784;19;20465;-78
2023/04/26 18:03:12;;;;;;;7.93;3.00;;;;;;;13.55;37.67;99815.09;12204466;19;20011;-78
2023/04/26 18:07:15;;;;;;;5.38;1.33;;;;;;;13.32;38.35;99815.50;12200847;19;20034;-78
2023/04/26 18:11:20;;;;;;;9.75;1.63;;;;;;;13.06;39.97;99817.25;12183986;19;20017;-78
2023/04/26 18:15:24;;;;;;;3.15;1.30;;;;;;;12.81;41.43;99820.66;12205238;19;20792;-78
2023/04/26 18:19:26;;;;;;;2.40;1.42;;;;;;;12.55;42.58;99817.66;12199394;19;20002;-79
2023/04/26 18:23:30;;;;;;;9.32;1.60;;;;;;;12.28;43.37;99814.94;12183576;19;20021;-79
2023/04/26 18:27:32;;;;;;;3.28;1.50;;;;;;;12.01;44.22;99820.44;12197660;19;20006;-79
2023/04/26 18:31:34;;;;;;;4.57;1.90;;;;;;;11.78;44.54;99827.06;12205326;19;20472;-78
2023/04/26 18:35:36;;;;;;;;;;;;;;;11.53;45.87;99830.31;12181552;19;20003;-79
2023/04/26 18:39:38;;;;;;;4.47;1.60;;;;;;;11.27;46.44;99838.22;12202988;19;19903;-78
2023/04/26 18:43:42;;;;;;;5.28;1.35;;;;;;;11.08;47.79;99836.84;12208352;19;20013;-79
2023/04/26 18:47:45;;;;;;;5.40;1.50;;;;;;;10.92;48.09;99833.03;12183444;19;20116;-79
2023/04/26 18:51:47;;;;;;;5.75;1.85;;;;;;;10.79;49.33;99841.63;12204984;19;20011;-78
2023/04/26 18:55:52;;;;;;;6.15;1.67;;;;;;;10.63;49.98;99840.56;12205140;19;21903;-79